createdAt,value
2019-03-31T00:00:26.696Z,11.77
2019-03-31T00:02:55.169Z,12.70
2019-03-31T00:05:23.634Z,12.10
2019-03-31T00:07:52.113Z,14.13
2019-03-31T00:10:20.558Z,13.57
2019-03-31T00:12:49.019Z,14.07
2019-03-31T00:15:17.520Z,12.80
2019-03-31T00:17:45.976Z,14.20
2019-03-31T00:20:14.534Z,13.47
2019-03-31T00:22:42.966Z,14.13
2019-03-31T00:25:11.502Z,13.30
2019-03-31T00:27:39.966Z,13.20
2019-03-31T00:30:08.499Z,12.13
2019-03-31T00:32:36.943Z,13.73
2019-03-31T00:35:05.654Z,14.30
2019-03-31T00:37:34.122Z,14.07
2019-03-31T00:40:02.834Z,12.80
2019-03-31T00:42:31.275Z,13.50
2019-03-31T00:44:59.729Z,13.17
2019-03-31T00:47:28.173Z,15.13
2019-03-31T00:49:56.650Z,14.20
2019-03-31T00:52:25.174Z,14.40
2019-03-31T00:54:53.657Z,14.00
2019-03-31T00:57:22.162Z,11.43
2019-03-31T00:59:50.625Z,14.70
2019-03-31T01:02:20.934Z,13.47
2019-03-31T01:04:49.390Z,13.70
2019-03-31T01:07:17.925Z,13.87
2019-03-31T01:09:46.472Z,13.47
2019-03-31T01:12:14.994Z,14.10
2019-03-31T01:14:44.110Z,13.30
2019-03-31T01:17:12.925Z,15.80
2019-03-31T01:19:41.525Z,14.20
2019-03-31T01:22:10.060Z,14.47
2019-03-31T01:24:38.572Z,13.10
2019-03-31T01:27:09.449Z,14.60
2019-03-31T01:29:38.066Z,13.73
2019-03-31T01:32:06.592Z,15.80
2019-03-31T01:34:35.732Z,15.27
2019-03-31T01:37:04.525Z,13.60
2019-03-31T01:39:34.409Z,14.10
2019-03-31T01:42:02.915Z,15.77
2019-03-31T01:44:31.369Z,15.50
2019-03-31T01:46:59.925Z,16.10
2019-03-31T01:49:28.385Z,16.67
2019-03-31T01:51:56.819Z,16.63
2019-03-31T01:54:25.258Z,17.00
2019-03-31T01:56:53.762Z,16.30
2019-03-31T01:59:22.202Z,17.03
2019-03-31T02:02:03.296Z,17.63
2019-03-31T02:04:20.813Z,17.33
2019-03-31T02:06:49.254Z,15.37
2019-03-31T02:09:17.699Z,16.93
2019-03-31T02:11:46.149Z,17.00
2019-03-31T02:14:14.616Z,16.30
2019-03-31T02:16:43.043Z,16.07
2019-03-31T02:19:11.513Z,16.23
2019-03-31T02:21:39.942Z,15.70
2019-03-31T02:24:08.398Z,16.37
2019-03-31T02:26:36.866Z,16.10
2019-03-31T02:29:05.305Z,17.87
2019-03-31T02:31:33.762Z,17.83
2019-03-31T02:34:02.214Z,19.17
2019-03-31T02:36:30.935Z,19.27
2019-03-31T02:38:59.395Z,20.13
2019-03-31T02:41:30.620Z,19.40
2019-03-31T02:43:59.091Z,19.40
2019-03-31T02:46:27.565Z,19.80
2019-03-31T02:48:56.028Z,18.70
2019-03-31T02:51:24.730Z,21.20
2019-03-31T02:53:53.256Z,18.10
2019-03-31T02:56:23.046Z,20.60
2019-03-31T02:58:53.881Z,17.37
2019-03-31T03:01:24.390Z,19.80
2019-03-31T03:03:54.234Z,19.20
2019-03-31T03:06:24.245Z,17.90
2019-03-31T03:08:55.087Z,19.40
2019-03-31T03:11:23.819Z,18.57
2019-03-31T03:13:52.802Z,21.77
2019-03-31T03:16:21.824Z,21.40
2019-03-31T03:18:50.331Z,21.60
2019-03-31T03:21:23.450Z,21.17
2019-03-31T03:23:49.334Z,20.97
2019-03-31T03:26:18.211Z,21.27
2019-03-31T03:28:46.650Z,24.47
2019-03-31T03:31:16.707Z,24.60
2019-03-31T03:33:45.790Z,25.83
2019-03-31T03:36:14.638Z,26.90
2019-03-31T03:38:43.176Z,28.93
2019-03-31T03:41:11.701Z,29.20
2019-03-31T03:43:54.021Z,30.73
2019-03-31T03:46:10.325Z,32.97
2019-03-31T03:48:38.814Z,29.73
2019-03-31T03:51:07.317Z,28.33
2019-03-31T03:53:35.775Z,25.97
2019-03-31T03:56:04.351Z,25.03
2019-03-31T03:58:32.800Z,26.07
2019-03-31T04:01:01.502Z,22.53
2019-03-31T04:03:31.250Z,23.00
2019-03-31T04:05:59.751Z,20.00
2019-03-31T04:08:28.195Z,20.13
2019-03-31T04:11:14.130Z,20.13
2019-03-31T04:13:42.612Z,19.67
2019-03-31T04:16:11.065Z,20.47
2019-03-31T04:18:39.523Z,20.70
2019-03-31T04:21:07.965Z,22.00
2019-03-31T04:23:36.443Z,21.37
2019-03-31T04:26:04.874Z,21.07
2019-03-31T04:28:33.330Z,20.60
2019-03-31T04:31:01.811Z,21.23
2019-03-31T04:33:48.402Z,19.30
2019-03-31T04:36:00.559Z,18.90
2019-03-31T04:38:29.024Z,19.40
2019-03-31T04:40:57.503Z,21.17
2019-03-31T04:43:25.998Z,24.10
2019-03-31T04:45:54.475Z,26.20
2019-03-31T04:48:22.919Z,26.87
2019-03-31T04:50:52.208Z,23.93
2019-03-31T04:53:20.875Z,23.30
2019-03-31T04:55:49.353Z,24.93
2019-03-31T04:58:17.800Z,24.40
2019-03-31T05:00:46.262Z,25.60
2019-03-31T05:03:14.697Z,32.23
2019-03-31T05:05:43.201Z,26.43
2019-03-31T05:08:11.636Z,27.07
2019-03-31T05:10:40.103Z,23.87
2019-03-31T05:13:08.631Z,22.70
2019-03-31T05:15:37.073Z,25.87
2019-03-31T05:18:05.597Z,23.07
2019-03-31T05:20:34.089Z,27.27
2019-03-31T05:23:02.566Z,27.87
2019-03-31T05:25:31.025Z,28.70
2019-03-31T05:27:59.615Z,27.47
2019-03-31T05:30:28.063Z,27.07
2019-03-31T05:32:56.541Z,29.13
2019-03-31T05:35:27.013Z,33.23
2019-03-31T05:37:55.167Z,32.57
2019-03-31T05:40:23.654Z,33.67
2019-03-31T05:42:52.215Z,32.87
2019-03-31T05:45:20.721Z,32.10
2019-03-31T05:47:49.192Z,29.33
2019-03-31T05:50:17.643Z,29.27
2019-03-31T05:52:46.113Z,28.67
2019-03-31T05:55:14.581Z,26.90
2019-03-31T05:57:43.367Z,30.70
2019-03-31T06:00:12.162Z,32.87
2019-03-31T06:02:40.685Z,31.83
2019-03-31T06:05:09.363Z,31.00
2019-03-31T06:07:37.843Z,30.40
2019-03-31T06:10:07.195Z,32.07
2019-03-31T06:12:35.674Z,42.07
2019-03-31T06:15:05.127Z,39.40
2019-03-31T06:17:33.596Z,41.90
2019-03-31T06:20:02.057Z,39.83
2019-03-31T06:22:30.537Z,41.73
2019-03-31T06:24:58.980Z,40.70
2019-03-31T06:27:27.525Z,36.63
2019-03-31T06:29:56.041Z,39.00
2019-03-31T06:32:24.501Z,38.03
2019-03-31T06:34:54.875Z,38.80
2019-03-31T06:37:23.396Z,34.07
2019-03-31T06:39:51.841Z,36.10
2019-03-31T06:42:20.304Z,37.53
2019-03-31T06:44:48.785Z,32.67
2019-03-31T06:47:17.323Z,36.27
2019-03-31T06:49:45.863Z,43.70
2019-03-31T06:52:14.335Z,37.60
2019-03-31T06:54:42.817Z,44.13
2019-03-31T06:57:11.261Z,37.77
2019-03-31T06:59:39.730Z,41.67
2019-03-31T07:02:08.185Z,42.07
2019-03-31T07:04:36.655Z,43.67
2019-03-31T07:07:05.118Z,38.40
2019-03-31T07:09:33.576Z,41.83
2019-03-31T07:12:02.045Z,42.77
2019-03-31T07:14:30.533Z,40.10
2019-03-31T07:16:58.980Z,41.60
2019-03-31T07:19:27.476Z,35.07
2019-03-31T07:21:55.918Z,35.50
2019-03-31T07:24:24.378Z,34.33
2019-03-31T07:26:52.860Z,29.93
2019-03-31T07:29:21.316Z,28.47
2019-03-31T07:31:49.861Z,28.50
2019-03-31T07:34:18.391Z,32.60
2019-03-31T07:36:47.119Z,32.80
2019-03-31T07:39:15.840Z,33.43
2019-03-31T07:41:44.548Z,28.93
2019-03-31T07:44:15.347Z,30.57
2019-03-31T07:46:43.435Z,31.80
2019-03-31T07:49:13.780Z,31.97
2019-03-31T07:51:42.257Z,33.20
2019-03-31T07:54:10.719Z,39.37
2019-03-31T07:56:39.182Z,39.60
2019-03-31T07:59:07.615Z,40.20
2019-03-31T08:01:36.074Z,40.70
2019-03-31T08:04:04.592Z,41.10
2019-03-31T08:06:33.131Z,41.50
2019-03-31T08:09:01.597Z,41.40
2019-03-31T08:11:30.039Z,42.53
2019-03-31T08:13:58.496Z,42.60
2019-03-31T08:16:26.973Z,42.87
2019-03-31T08:18:55.462Z,43.60
2019-03-31T08:21:24.011Z,44.83
2019-03-31T08:23:52.569Z,43.20
2019-03-31T08:26:21.018Z,41.50
2019-03-31T08:28:49.478Z,42.67
2019-03-31T08:31:17.929Z,40.17
2019-03-31T08:33:46.422Z,43.67
2019-03-31T08:36:14.867Z,44.47
2019-03-31T08:38:43.340Z,41.77
2019-03-31T08:41:11.784Z,41.37
2019-03-31T08:43:40.349Z,38.77
2019-03-31T08:46:08.801Z,41.30
2019-03-31T08:48:37.307Z,42.47
2019-03-31T08:51:05.755Z,44.33
2019-03-31T08:53:34.205Z,44.87
2019-03-31T08:56:02.663Z,41.57
2019-03-31T08:58:31.103Z,42.70
2019-03-31T09:01:01.512Z,44.77
2019-03-31T09:03:30.052Z,45.33
2019-03-31T09:06:01.956Z,45.90
2019-03-31T09:08:28.754Z,43.67
2019-03-31T09:10:57.295Z,43.40
2019-03-31T09:13:25.758Z,43.17
2019-03-31T09:15:54.294Z,42.97
2019-03-31T09:18:22.762Z,41.07
2019-03-31T09:20:51.314Z,40.30
2019-03-31T09:23:19.778Z,41.80
2019-03-31T09:25:48.226Z,42.37
2019-03-31T09:28:16.715Z,40.33
2019-03-31T09:30:45.231Z,39.93
2019-03-31T09:33:13.672Z,41.40
2019-03-31T09:35:42.119Z,38.67
2019-03-31T09:38:10.568Z,40.53
2019-03-31T09:40:39.010Z,40.97
2019-03-31T09:43:07.467Z,41.27
2019-03-31T09:45:35.933Z,42.97
2019-03-31T09:48:04.466Z,43.87
2019-03-31T09:50:32.976Z,43.63
2019-03-31T09:53:01.435Z,41.33
2019-03-31T09:55:29.909Z,42.43
2019-03-31T09:57:58.428Z,42.43
2019-03-31T10:00:44.574Z,39.83
2019-03-31T10:03:13.131Z,40.67
2019-03-31T10:05:41.658Z,40.90
2019-03-31T10:08:10.128Z,43.77
2019-03-31T10:10:38.588Z,45.70
2019-03-31T10:13:07.117Z,42.93
2019-03-31T10:15:35.596Z,46.23
2019-03-31T10:18:04.076Z,42.90
2019-03-31T10:20:32.534Z,42.47
2019-03-31T10:23:01.012Z,41.80
2019-03-31T10:25:29.463Z,43.60
2019-03-31T10:27:57.977Z,39.70
2019-03-31T10:30:34.013Z,38.30
2019-03-31T10:33:02.537Z,43.40
2019-03-31T10:35:31.067Z,40.27
2019-03-31T10:37:59.582Z,39.87
2019-03-31T10:40:28.038Z,40.47
2019-03-31T10:42:56.488Z,39.60
2019-03-31T10:45:24.959Z,39.10
2019-03-31T10:47:53.593Z,40.60
2019-03-31T10:50:22.070Z,37.40
2019-03-31T10:52:50.526Z,40.43
2019-03-31T10:55:19.051Z,39.33
2019-03-31T10:57:47.511Z,37.83
2019-03-31T11:00:19.042Z,37.20
2019-03-31T11:02:48.359Z,36.27
2019-03-31T11:05:16.890Z,34.93
2019-03-31T11:07:45.340Z,33.50
2019-03-31T11:10:13.876Z,34.87
2019-03-31T11:12:42.352Z,34.00
2019-03-31T11:15:11.183Z,31.90
2019-03-31T11:17:39.714Z,35.10
2019-03-31T11:20:08.397Z,36.50
2019-03-31T11:22:38.514Z,31.83
2019-03-31T11:25:20.209Z,35.57
2019-03-31T11:27:38.283Z,33.10
2019-03-31T11:30:08.261Z,33.10
2019-03-31T11:32:36.755Z,32.00
2019-03-31T11:35:06.383Z,32.27
2019-03-31T11:37:34.937Z,34.53
2019-03-31T11:40:04.704Z,29.73
2019-03-31T11:42:33.168Z,30.43
2019-03-31T11:45:01.703Z,28.10
2019-03-31T11:47:30.244Z,29.97
2019-03-31T11:49:58.772Z,28.27
2019-03-31T11:52:27.310Z,29.93
2019-03-31T11:54:55.781Z,28.13
2019-03-31T11:57:24.243Z,26.60
2019-03-31T11:59:52.699Z,25.17
2019-03-31T12:02:27.277Z,27.67
2019-03-31T12:04:52.097Z,25.80
2019-03-31T12:07:27.772Z,28.33
2019-03-31T12:09:50.745Z,25.93
2019-03-31T12:12:19.219Z,23.23
2019-03-31T12:14:59.792Z,23.07
2019-03-31T12:17:17.894Z,24.40
2019-03-31T12:19:48.815Z,21.57
2019-03-31T12:22:16.558Z,23.80
2019-03-31T12:24:45.097Z,22.53
2019-03-31T12:27:13.529Z,19.90
2019-03-31T12:29:42.005Z,19.20
2019-03-31T12:32:10.502Z,19.87
2019-03-31T12:34:39.046Z,17.20
2019-03-31T12:37:07.606Z,19.27
2019-03-31T12:39:36.167Z,16.53
2019-03-31T12:42:04.954Z,16.70
2019-03-31T12:44:33.493Z,20.20
2019-03-31T12:47:01.975Z,17.67
2019-03-31T12:49:30.472Z,18.63
2019-03-31T12:51:58.991Z,16.60
2019-03-31T12:54:28.365Z,15.63
2019-03-31T12:56:56.889Z,16.30
2019-03-31T12:59:27.223Z,16.80
2019-03-31T13:01:55.566Z,16.07
2019-03-31T13:04:24.040Z,16.77
2019-03-31T13:06:52.491Z,14.67
2019-03-31T13:09:21.104Z,15.70
2019-03-31T13:11:50.508Z,13.80
2019-03-31T13:14:19.151Z,14.50
2019-03-31T13:16:47.589Z,14.50
2019-03-31T13:19:16.057Z,15.93
2019-03-31T13:21:44.503Z,15.47
2019-03-31T13:24:13.007Z,15.07
2019-03-31T13:26:41.554Z,15.30
2019-03-31T13:29:10.958Z,16.27
2019-03-31T13:31:39.418Z,14.80
2019-03-31T13:34:07.983Z,17.57
2019-03-31T13:36:38.347Z,14.87
2019-03-31T13:39:07.482Z,15.23
2019-03-31T13:41:35.933Z,14.23
2019-03-31T13:44:04.504Z,16.40
2019-03-31T13:46:32.983Z,16.73
2019-03-31T13:49:01.461Z,16.33
2019-03-31T13:51:29.923Z,16.73
2019-03-31T13:53:58.369Z,16.17
2019-03-31T13:56:27.955Z,16.00
2019-03-31T13:58:56.670Z,15.20
2019-03-31T14:01:25.217Z,15.20
2019-03-31T14:03:53.716Z,13.27
2019-03-31T14:06:22.210Z,15.40
2019-03-31T14:08:50.652Z,12.33
2019-03-31T14:11:21.713Z,12.37
2019-03-31T14:13:50.364Z,11.47
2019-03-31T14:16:18.884Z,12.60
2019-03-31T14:18:47.336Z,11.50
2019-03-31T14:21:17.710Z,9.43
2019-03-31T14:23:46.152Z,9.90
2019-03-31T14:26:14.605Z,9.40
2019-03-31T14:28:43.062Z,8.80
2019-03-31T14:31:11.516Z,8.67
2019-03-31T14:33:39.959Z,8.20
2019-03-31T14:36:08.449Z,7.93
2019-03-31T14:38:40.231Z,7.53
2019-03-31T14:41:07.093Z,8.80
2019-03-31T14:43:35.535Z,7.97
2019-03-31T14:46:04.010Z,7.90
2019-03-31T14:48:32.550Z,8.60
2019-03-31T14:51:01.109Z,7.00
2019-03-31T14:53:29.543Z,8.30
2019-03-31T14:55:59.919Z,8.20
2019-03-31T14:58:28.435Z,8.13
2019-03-31T15:00:57.893Z,8.80
2019-03-31T15:03:26.331Z,7.60
2019-03-31T15:05:55.667Z,9.57
2019-03-31T15:08:24.136Z,9.00
2019-03-31T15:10:52.581Z,9.23
2019-03-31T15:13:21.065Z,8.53
2019-03-31T15:15:49.495Z,9.53
2019-03-31T15:18:17.937Z,9.00
2019-03-31T15:20:46.380Z,9.83
2019-03-31T15:23:14.825Z,9.60
2019-03-31T15:25:43.389Z,9.00
2019-03-31T15:28:11.856Z,9.43
2019-03-31T15:30:40.314Z,10.30
2019-03-31T15:33:08.801Z,10.20
2019-03-31T15:35:37.878Z,9.30
2019-03-31T15:38:06.537Z,11.97
2019-03-31T15:40:35.013Z,10.27
2019-03-31T15:43:04.453Z,9.20
2019-03-31T15:45:32.901Z,9.20
2019-03-31T15:48:01.354Z,10.20
2019-03-31T15:50:29.788Z,9.00
2019-03-31T15:52:58.326Z,9.47
2019-03-31T15:55:26.839Z,9.00
2019-03-31T15:57:55.289Z,9.20
2019-03-31T16:00:23.746Z,7.27
2019-03-31T16:02:52.303Z,8.67
2019-03-31T16:05:21.069Z,8.30
2019-03-31T16:07:49.545Z,8.30
2019-03-31T16:10:18.151Z,9.17
2019-03-31T16:12:46.582Z,8.47
2019-03-31T16:15:16.577Z,8.50
2019-03-31T16:17:47.919Z,8.70
2019-03-31T16:20:16.483Z,8.77
2019-03-31T16:22:44.954Z,7.73
2019-03-31T16:25:15.108Z,8.10
2019-03-31T16:27:43.673Z,9.93
2019-03-31T16:30:12.354Z,9.00
2019-03-31T16:32:40.829Z,8.13
2019-03-31T16:35:09.357Z,6.43
2019-03-31T16:37:37.837Z,6.23
2019-03-31T16:40:07.013Z,7.00
2019-03-31T16:42:35.455Z,6.37
2019-03-31T16:45:06.635Z,5.83
2019-03-31T16:47:35.088Z,6.10
2019-03-31T16:50:07.015Z,5.30
2019-03-31T16:52:35.463Z,4.73
2019-03-31T16:55:04.854Z,5.63
2019-03-31T16:57:33.304Z,5.10
2019-03-31T17:00:01.790Z,5.73
2019-03-31T17:02:30.232Z,4.80
2019-03-31T17:04:58.687Z,5.33
2019-03-31T17:07:27.161Z,5.63
2019-03-31T17:09:55.619Z,4.60
2019-03-31T17:12:24.090Z,5.13
2019-03-31T17:14:52.604Z,4.63
2019-03-31T17:17:21.084Z,4.77
2019-03-31T17:19:49.550Z,5.07
2019-03-31T17:22:18.005Z,4.63
2019-03-31T17:24:46.477Z,5.03
2019-03-31T17:27:14.934Z,3.70
2019-03-31T17:29:43.396Z,4.10
2019-03-31T17:32:11.899Z,4.40
2019-03-31T17:34:40.368Z,4.33
2019-03-31T17:37:08.837Z,4.30
2019-03-31T17:39:37.379Z,4.13
2019-03-31T17:42:05.846Z,3.00
2019-03-31T17:44:34.318Z,4.00
2019-03-31T17:47:02.850Z,4.37
2019-03-31T17:49:31.298Z,4.20
2019-03-31T17:52:01.405Z,3.70
2019-03-31T17:54:30.918Z,4.00
2019-03-31T17:56:59.450Z,4.00
2019-03-31T17:59:28.037Z,3.80
2019-03-31T18:01:56.491Z,4.57
2019-03-31T18:04:25.012Z,4.37
2019-03-31T18:06:53.510Z,4.60
2019-03-31T18:09:21.970Z,4.10
2019-03-31T18:11:50.450Z,4.50
2019-03-31T18:14:18.890Z,4.60
2019-03-31T18:16:47.411Z,4.90
2019-03-31T18:19:15.858Z,4.33
2019-03-31T18:21:44.316Z,4.53
2019-03-31T18:24:12.754Z,4.67
2019-03-31T18:26:41.235Z,5.10
2019-03-31T18:29:09.791Z,6.07
2019-03-31T18:31:38.344Z,4.53
2019-03-31T18:34:06.825Z,5.33
2019-03-31T18:36:36.878Z,4.97
2019-03-31T18:39:07.039Z,4.43
2019-03-31T18:41:35.497Z,4.17
2019-03-31T18:44:05.926Z,4.13
2019-03-31T18:46:35.304Z,4.40
2019-03-31T18:49:04.038Z,4.97
2019-03-31T18:51:32.541Z,4.50
2019-03-31T18:54:18.955Z,4.30
2019-03-31T18:56:55.014Z,4.43
2019-03-31T18:59:41.115Z,4.47
2019-03-31T19:02:25.163Z,5.50
2019-03-31T19:04:55.111Z,4.63
2019-03-31T19:07:41.377Z,5.23
2019-03-31T19:10:24.045Z,4.73
2019-03-31T19:12:46.282Z,6.00
2019-03-31T19:15:17.265Z,6.23
2019-03-31T19:18:02.545Z,5.33
2019-03-31T19:20:41.561Z,5.70
2019-03-31T19:23:11.702Z,6.77
2019-03-31T19:25:44.503Z,5.13
2019-03-31T19:28:23.663Z,5.20
2019-03-31T19:30:59.657Z,4.80
2019-03-31T19:33:30.615Z,4.67
2019-03-31T19:36:06.856Z,5.47
2019-03-31T19:38:54.880Z,4.40
2019-03-31T19:41:25.001Z,5.93
2019-03-31T19:44:00.519Z,6.57
2019-03-31T19:46:39.295Z,6.20
2019-03-31T19:49:15.357Z,5.70
2019-03-31T19:51:45.514Z,5.97
2019-03-31T19:54:31.771Z,5.70
2019-03-31T19:57:12.153Z,6.20
2019-03-31T19:59:45.149Z,4.10
2019-03-31T20:02:18.083Z,4.47
2019-03-31T20:04:48.163Z,4.40
2019-03-31T20:07:36.556Z,5.00
2019-03-31T20:10:16.828Z,5.00
2019-03-31T20:13:03.266Z,4.80
2019-03-31T20:15:49.409Z,4.20
2019-03-31T20:18:22.540Z,3.33
2019-03-31T20:20:55.407Z,3.00
2019-03-31T20:23:25.518Z,3.57
2019-03-31T20:25:58.549Z,2.40
2019-03-31T20:28:28.686Z,3.20
2019-03-31T20:31:04.825Z,2.93
2019-03-31T20:33:34.903Z,3.27
2019-03-31T20:36:20.813Z,2.97
2019-03-31T20:38:56.850Z,3.07
2019-03-31T20:41:26.971Z,2.83
2019-03-31T20:43:55.467Z,2.37
2019-03-31T20:46:23.934Z,2.87
2019-03-31T20:48:52.616Z,2.37
2019-03-31T20:51:21.077Z,2.40
2019-03-31T20:53:51.491Z,2.83
2019-03-31T20:56:19.919Z,4.47
2019-03-31T20:58:48.378Z,2.47
2019-03-31T21:01:16.867Z,2.80
2019-03-31T21:03:45.423Z,1.83
2019-03-31T21:06:13.872Z,3.13
2019-03-31T21:08:42.369Z,2.60
2019-03-31T21:11:10.841Z,3.20
2019-03-31T21:13:39.307Z,2.17
2019-03-31T21:16:07.755Z,3.30
2019-03-31T21:18:36.227Z,2.50
2019-03-31T21:21:04.734Z,1.70
2019-03-31T21:23:33.186Z,2.70
2019-03-31T21:26:01.668Z,3.07
2019-03-31T21:28:30.138Z,2.20
2019-03-31T21:30:58.573Z,2.10
2019-03-31T21:33:27.026Z,2.27
2019-03-31T21:35:55.471Z,3.60
2019-03-31T21:38:23.953Z,2.17
2019-03-31T21:40:52.385Z,2.23
2019-03-31T21:43:20.816Z,1.67
2019-03-31T21:45:49.273Z,1.83
2019-03-31T21:48:17.745Z,2.97
2019-03-31T21:50:46.192Z,1.83
2019-03-31T21:53:14.759Z,2.63
2019-03-31T21:55:43.207Z,2.20
2019-03-31T21:58:11.639Z,3.50
2019-03-31T22:00:50.314Z,2.70
2019-03-31T22:03:19.239Z,2.10
2019-03-31T22:05:47.914Z,2.10
2019-03-31T22:08:16.427Z,2.57
2019-03-31T22:10:44.878Z,2.27
2019-03-31T22:13:13.311Z,2.20
2019-03-31T22:15:41.788Z,2.00
2019-03-31T22:18:10.241Z,1.60
2019-03-31T22:20:38.990Z,1.90
2019-03-31T22:23:07.691Z,2.80
2019-03-31T22:25:36.189Z,1.50
2019-03-31T22:28:04.759Z,2.13
2019-03-31T22:30:34.980Z,1.50
2019-03-31T22:33:03.556Z,1.80
2019-03-31T22:35:32.055Z,1.70
2019-03-31T22:38:02.452Z,3.20
2019-03-31T22:40:30.756Z,3.53
2019-03-31T22:42:59.196Z,3.30
2019-03-31T22:45:27.664Z,3.30
2019-03-31T22:47:56.108Z,2.13
2019-03-31T22:50:24.654Z,2.90
2019-03-31T22:52:53.247Z,2.93
2019-03-31T22:55:21.681Z,1.63
2019-03-31T22:57:50.215Z,1.60
2019-03-31T23:00:20.330Z,1.90
2019-03-31T23:02:48.767Z,1.57
2019-03-31T23:05:17.268Z,1.50
2019-03-31T23:07:45.696Z,1.10
2019-03-31T23:10:14.222Z,1.13
2019-03-31T23:12:42.681Z,1.50
2019-03-31T23:15:11.196Z,1.60
2019-03-31T23:17:39.696Z,1.40
2019-03-31T23:20:08.172Z,1.87
2019-03-31T23:22:36.682Z,1.60
2019-03-31T23:25:06.153Z,1.50
2019-03-31T23:27:34.634Z,1.30
2019-03-31T23:30:05.082Z,1.30
2019-03-31T23:32:33.542Z,2.23
2019-03-31T23:35:01.993Z,1.17
2019-03-31T23:37:30.450Z,1.60
2019-03-31T23:39:58.883Z,2.00
2019-03-31T23:42:27.359Z,1.87
2019-03-31T23:44:55.811Z,1.97
2019-03-31T23:47:24.301Z,1.70
2019-03-31T23:49:52.765Z,1.70
2019-03-31T23:52:21.298Z,1.20
2019-03-31T23:54:50.618Z,1.70
2019-03-31T23:57:20.736Z,1.40
2019-03-31T23:59:49.185Z,1.53
